Time;durP1;ratioP1;P1;durP2;ratioP2;P2;SDS_P1;SDS_P2;PMS_P1;PMS_P2;Temp;Humidity;BMP_temperature;BMP_pressure;BME280_temperature;BME280_humidity;BME280_pressure;Samples;Min_cycle;Max_cycle;Signal;HPM_P1;HPM_P2
2021/12/23 00:00:29;;;;;;;459.63;201.90;;;-2.50;99.90;;;;;;4967379;28;20378;-72
2021/12/23 00:02:55;;;;;;;390.95;175.15;;;-2.50;99.90;;;;;;4969685;28;20030;-72
2021/12/23 00:05:21;;;;;;;365.20;162.20;;;-2.40;99.90;;;;;;4970122;28;20080;-72
2021/12/23 00:07:47;;;;;;;330.88;149.40;;;-2.40;99.90;;;;;;4972181;28;20027;-72
2021/12/23 00:10:12;;;;;;;318.33;142.05;;;-2.50;99.90;;;;;;4972973;28;20031;-72
2021/12/23 00:12:41;;;;;;;318.38;143.85;;;-2.40;99.90;;;;;;4972072;28;20037;-73
2021/12/23 00:15:17;;;;;;;321.88;140.18;;;-2.40;99.90;;;;;;4973204;28;20034;-73
2021/12/23 00:25:20;;;;;;;342.27;154.90;;;-2.40;99.90;;;;;;4974161;28;20401;-72
2021/12/23 00:27:46;;;;;;;319.65;141.88;;;-2.40;99.90;;;;;;4974149;28;20478;-72
2021/12/23 00:30:12;;;;;;;323.40;147.27;;;-2.50;99.90;;;;;;4974521;28;20027;-72
2021/12/23 00:32:38;;;;;;;318.92;148.25;;;-2.50;99.90;;;;;;4974222;28;20480;-72
2021/12/23 00:35:09;;;;;;;332.98;153.75;;;-2.40;99.90;;;;;;4974360;28;20084;-72
2021/12/23 00:37:44;;;;;;;331.83;149.70;;;-2.50;99.90;;;;;;4974098;28;20036;-72
2021/12/23 00:40:12;;;;;;;292.15;135.25;;;-2.50;99.90;;;;;;4974327;28;20256;-72
2021/12/23 00:42:39;;;;;;;295.92;139.35;;;-2.50;99.90;;;;;;4974230;28;20026;-72
2021/12/23 00:45:05;;;;;;;288.50;131.73;;;-2.50;99.90;;;;;;4974112;28;20077;-72
2021/12/23 00:47:31;;;;;;;363.92;158.57;;;-2.50;99.90;;;;;;4974261;28;20054;-72
2021/12/23 00:49:57;;;;;;;322.13;145.27;;;-2.50;99.90;;;;;;4973837;28;20477;-73
2021/12/23 00:52:30;;;;;;;328.13;150.65;;;-2.50;99.90;;;;;;4973432;28;20402;-72
2021/12/23 00:54:55;;;;;;;296.40;136.10;;;-2.50;99.90;;;;;;4974092;28;20034;-73
2021/12/23 00:57:27;;;;;;;284.13;135.25;;;-2.50;99.90;;;;;;4974109;28;20027;-72
2021/12/23 00:59:54;;;;;;;275.08;126.75;;;-2.60;99.90;;;;;;4974203;28;20035;-72
2021/12/23 01:02:24;;;;;;;275.30;123.07;;;-2.60;99.90;;;;;;4973581;28;20035;-72
2021/12/23 01:04:49;;;;;;;278.90;129.32;;;-2.60;99.90;;;;;;4974196;28;20027;-72
2021/12/23 01:07:15;;;;;;;254.27;119.53;;;-2.60;99.90;;;;;;4973788;28;20191;-73
2021/12/23 01:09:41;;;;;;;259.73;121.88;;;-2.60;99.90;;;;;;4973802;28;20030;-74
2021/12/23 01:12:10;;;;;;;260.67;118.15;;;-2.60;99.90;;;;;;4973669;28;20462;-74
2021/12/23 01:14:53;;;;;;;266.02;119.50;;;-2.60;99.90;;;;;;4973565;28;20351;-72
2021/12/23 01:19:51;;;;;;;286.08;126.32;;;-2.70;99.90;;;;;;4972953;28;20109;-71
2021/12/23 01:22:18;;;;;;;268.13;123.13;;;-2.70;99.90;;;;;;4973745;28;20053;-72
2021/12/23 01:24:44;;;;;;;283.10;127.82;;;-2.70;99.90;;;;;;4973285;28;20035;-72
2021/12/23 01:27:10;;;;;;;328.63;132.25;;;-2.70;99.90;;;;;;4973433;28;20347;-72
2021/12/23 01:29:36;;;;;;;409.50;160.88;;;-2.70;99.90;;;;;;4973309;28;20031;-73
2021/12/23 01:32:04;;;;;;;435.20;166.45;;;-2.60;99.90;;;;;;4973451;28;20022;-72
2021/12/23 01:34:33;;;;;;;504.52;195.30;;;-2.60;99.90;;;;;;4972964;28;20037;-72
2021/12/23 01:37:00;;;;;;;364.48;150.73;;;-2.70;99.90;;;;;;4973472;28;20072;-72
2021/12/23 01:39:26;;;;;;;514.13;197.80;;;-2.70;99.90;;;;;;4973172;28;20446;-72
2021/12/23 01:41:52;;;;;;;465.23;189.32;;;-2.70;99.90;;;;;;4973071;28;20055;-74
2021/12/23 01:44:18;;;;;;;451.00;185.60;;;-2.70;99.90;;;;;;4972999;28;20078;-72
2021/12/23 01:46:44;;;;;;;514.33;204.10;;;-2.70;99.90;;;;;;4973105;28;20466;-72
2021/12/23 01:49:10;;;;;;;630.22;249.02;;;-2.70;99.90;;;;;;4973122;28;20070;-72
2021/12/23 01:51:36;;;;;;;458.90;200.10;;;-2.70;99.90;;;;;;4973301;28;20257;-72
2021/12/23 01:54:02;;;;;;;399.88;170.43;;;-2.70;99.90;;;;;;4973136;28;20031;-72
2021/12/23 01:56:28;;;;;;;416.90;190.13;;;-2.80;99.90;;;;;;4972929;28;20031;-73
2021/12/23 01:58:54;;;;;;;371.77;161.85;;;-2.80;99.90;;;;;;4972788;28;20045;-72
2021/12/23 02:01:20;;;;;;;396.85;176.65;;;-2.80;99.90;;;;;;4972787;28;20034;-74
2021/12/23 02:03:46;;;;;;;416.52;180.85;;;-2.80;99.90;;;;;;4972543;28;20045;-72
2021/12/23 02:06:12;;;;;;;424.95;185.23;;;-2.80;99.90;;;;;;4972969;28;20110;-72
2021/12/23 02:08:39;;;;;;;452.55;190.27;;;-2.80;99.90;;;;;;4973000;28;20084;-75
2021/12/23 02:11:06;;;;;;;512.65;223.48;;;-2.80;99.90;;;;;;4972545;28;20385;-73
2021/12/23 02:13:32;;;;;;;526.25;229.13;;;-2.80;99.90;;;;;;4972549;28;20031;-72
2021/12/23 02:15:58;;;;;;;449.08;201.02;;;-2.80;99.90;;;;;;4972708;28;20109;-72
2021/12/23 02:18:25;;;;;;;457.70;204.68;;;-2.80;99.90;;;;;;4972878;28;20023;-73
2021/12/23 02:20:53;;;;;;;434.67;191.32;;;-2.90;99.90;;;;;;4972786;28;20461;-72
2021/12/23 02:23:19;;;;;;;370.45;156.85;;;-2.90;99.90;;;;;;4972576;28;20054;-72
2021/12/23 02:25:45;;;;;;;370.25;159.48;;;-2.90;99.90;;;;;;4972727;28;20102;-74
2021/12/23 02:28:20;;;;;;;384.00;166.88;;;-2.90;99.90;;;;;;4972511;28;20113;-73
2021/12/23 02:30:51;;;;;;;378.75;160.48;;;-3.00;99.90;;;;;;4971514;28;20152;-72
2021/12/23 02:33:19;;;;;;;337.80;148.57;;;-3.00;99.90;;;;;;4972628;28;20043;-73
2021/12/23 02:35:44;;;;;;;302.30;134.07;;;-3.00;99.90;;;;;;4972593;28;20039;-73
2021/12/23 02:38:10;;;;;;;275.42;122.18;;;-3.00;99.90;;;;;;4972390;28;20472;-72
2021/12/23 02:40:40;;;;;;;267.02;118.43;;;-3.00;99.90;;;;;;4972177;28;20382;-72
2021/12/23 02:43:16;;;;;;;274.13;110.95;;;-3.10;99.90;;;;;;4972265;28;20026;-75
2021/12/23 02:45:47;;;;;;;251.00;110.95;;;-3.00;99.90;;;;;;4972232;28;20042;-72
2021/12/23 02:48:18;;;;;;;252.18;109.68;;;-3.00;99.90;;;;;;4972118;28;20477;-73
2021/12/23 02:50:47;;;;;;;238.55;105.47;;;-3.10;99.90;;;;;;4971997;28;20092;-73
2021/12/23 02:53:13;;;;;;;222.57;98.63;;;-3.10;99.90;;;;;;4972282;28;20035;-73
2021/12/23 02:55:39;;;;;;;222.90;99.70;;;-3.10;99.90;;;;;;4971985;28;20027;-73
2021/12/23 02:58:05;;;;;;;248.45;107.28;;;-3.10;99.90;;;;;;4971575;28;20027;-73
2021/12/23 03:00:32;;;;;;;223.82;98.40;;;-3.10;99.90;;;;;;4972033;28;20066;-73
2021/12/23 03:02:58;;;;;;;220.32;101.45;;;-3.10;99.90;;;;;;4972207;28;20034;-73
2021/12/23 03:05:24;;;;;;;241.23;106.10;;;-3.20;99.90;;;;;;4971776;28;20049;-74
2021/12/23 03:07:50;;;;;;;228.27;100.35;;;-3.10;99.90;;;;;;4971743;28;20037;-73
2021/12/23 03:10:16;;;;;;;250.32;104.93;;;-3.10;99.90;;;;;;4972079;28;20102;-73
2021/12/23 03:12:42;;;;;;;250.48;103.47;;;-3.20;99.90;;;;;;4971455;28;20101;-73
2021/12/23 03:15:08;;;;;;;259.25;108.13;;;-3.20;99.90;;;;;;4972020;28;20504;-73
2021/12/23 03:17:34;;;;;;;256.73;112.38;;;-3.10;99.90;;;;;;4972115;28;20023;-74
2021/12/23 03:20:01;;;;;;;333.95;130.93;;;-3.20;99.90;;;;;;4971877;28;20027;-74
2021/12/23 03:22:27;;;;;;;345.23;137.48;;;-3.20;99.90;;;;;;4971928;28;20133;-74
2021/12/23 03:24:53;;;;;;;349.40;130.95;;;-3.20;99.90;;;;;;4972044;28;20106;-73
2021/12/23 03:27:19;;;;;;;358.95;133.25;;;-3.20;99.90;;;;;;4971413;28;20105;-74
2021/12/23 03:29:45;;;;;;;352.30;133.18;;;-3.20;99.90;;;;;;4971846;28;20027;-74
2021/12/23 03:32:10;;;;;;;364.25;141.32;;;-3.20;99.90;;;;;;4971969;28;20161;-74
2021/12/23 03:34:36;;;;;;;336.27;140.93;;;-3.20;99.90;;;;;;4971338;28;20046;-73
2021/12/23 03:37:02;;;;;;;291.85;127.38;;;-3.20;99.90;;;;;;4971571;28;20458;-73
2021/12/23 03:39:28;;;;;;;287.05;124.57;;;-3.20;99.90;;;;;;4971860;28;20559;-73
2021/12/23 03:41:54;;;;;;;304.85;121.68;;;-3.20;99.90;;;;;;4972722;28;20050;-74
2021/12/23 03:44:20;;;;;;;251.27;105.88;;;-3.20;99.90;;;;;;4975128;28;20114;-74
2021/12/23 03:46:45;;;;;;;246.75;103.75;;;-3.20;99.90;;;;;;4974699;28;20481;-73
2021/12/23 03:49:11;;;;;;;231.00;99.50;;;-3.30;99.90;;;;;;4974942;28;20030;-73
2021/12/23 03:51:37;;;;;;;212.57;97.20;;;-3.20;99.90;;;;;;4974634;28;20474;-73
2021/12/23 03:54:03;;;;;;;224.18;98.88;;;-3.20;99.90;;;;;;4974757;28;20035;-73
2021/12/23 03:56:29;;;;;;;217.65;100.38;;;-3.20;99.90;;;;;;4975236;28;20085;-73
2021/12/23 03:58:56;;;;;;;218.88;97.60;;;-3.20;99.90;;;;;;4974932;28;20030;-74
2021/12/23 04:01:23;;;;;;;203.43;95.43;;;-3.20;99.90;;;;;;4974488;28;20034;-73
2021/12/23 04:03:54;;;;;;;223.82;100.57;;;-3.20;99.90;;;;;;4974563;28;20031;-73
2021/12/23 04:06:21;;;;;;;214.70;102.53;;;-3.20;99.90;;;;;;4974968;28;20377;-74
2021/12/23 04:08:47;;;;;;;216.80;100.93;;;-3.30;99.90;;;;;;4974901;28;20026;-73
2021/12/23 04:11:14;;;;;;;238.85;102.97;;;-3.20;99.90;;;;;;4974728;28;20054;-74
2021/12/23 04:13:40;;;;;;;247.50;107.22;;;-3.20;99.90;;;;;;4974732;28;20031;-73
2021/12/23 04:16:06;;;;;;;280.65;115.88;;;-3.30;99.90;;;;;;4974593;28;20047;-73
2021/12/23 04:18:32;;;;;;;296.20;122.82;;;-3.30;99.90;;;;;;4974331;28;20027;-73
2021/12/23 04:20:58;;;;;;;327.42;138.32;;;-3.20;99.90;;;;;;4974595;28;20049;-73
2021/12/23 04:23:30;;;;;;;397.33;175.77;;;-3.20;99.90;;;;;;4974151;28;20090;-74
2021/12/23 04:25:56;;;;;;;463.48;191.68;;;-3.20;99.90;;;;;;4974313;28;20105;-74
2021/12/23 04:28:24;;;;;;;501.50;205.05;;;-3.30;99.90;;;;;;4974533;28;20035;-73
2021/12/23 04:30:51;;;;;;;530.05;213.10;;;-3.30;99.90;;;;;;4974041;28;20027;-74
2021/12/23 04:33:16;;;;;;;572.78;233.40;;;-3.30;99.90;;;;;;4974561;28;20482;-73
2021/12/23 04:35:42;;;;;;;504.02;201.85;;;-3.20;99.90;;;;;;4974169;28;20026;-75
2021/12/23 04:38:08;;;;;;;416.27;167.90;;;-3.30;99.90;;;;;;4974298;28;20033;-74
2021/12/23 04:40:35;;;;;;;340.10;148.80;;;-3.30;99.90;;;;;;4974318;28;20085;-74
2021/12/23 04:43:03;;;;;;;335.10;141.50;;;-3.30;99.90;;;;;;4974170;28;20096;-73
2021/12/23 04:45:29;;;;;;;342.45;145.40;;;-3.30;99.90;;;;;;4974064;28;20037;-74
2021/12/23 04:47:55;;;;;;;335.48;143.55;;;-3.30;99.90;;;;;;4974193;28;20117;-73
2021/12/23 04:50:21;;;;;;;325.83;143.25;;;-3.40;99.90;;;;;;4973855;28;20031;-76
2021/12/23 04:52:47;;;;;;;338.65;145.15;;;-3.40;99.90;;;;;;4973116;28;20039;-73
2021/12/23 04:55:15;;;;;;;324.83;137.43;;;-3.40;99.90;;;;;;4973918;28;20034;-73
2021/12/23 04:57:42;;;;;;;324.23;141.93;;;-3.40;99.90;;;;;;4973930;28;20474;-73
2021/12/23 05:00:13;;;;;;;326.00;141.23;;;-3.40;99.90;;;;;;4973664;28;20019;-73
2021/12/23 05:02:39;;;;;;;340.67;143.03;;;-3.40;99.90;;;;;;4973709;28;20078;-74
2021/12/23 05:05:06;;;;;;;344.63;139.73;;;-3.40;99.90;;;;;;4973562;28;20023;-73
2021/12/23 05:07:32;;;;;;;337.05;139.63;;;-3.40;99.90;;;;;;4973599;28;20030;-73
2021/12/23 05:09:57;;;;;;;342.27;139.50;;;-3.50;99.90;;;;;;4973962;28;20027;-74
2021/12/23 05:12:24;;;;;;;316.60;135.13;;;-3.50;99.90;;;;;;4973660;28;20030;-74
2021/12/23 05:14:50;;;;;;;291.55;131.10;;;-3.50;99.90;;;;;;4973842;28;20062;-74
2021/12/23 05:17:16;;;;;;;308.90;140.70;;;-3.50;99.90;;;;;;4973915;28;20077;-74
2021/12/23 05:19:42;;;;;;;332.13;150.45;;;-3.50;99.90;;;;;;4973894;28;20027;-75
2021/12/23 05:22:08;;;;;;;346.60;156.93;;;-3.50;99.90;;;;;;4973713;28;20579;-73
2021/12/23 05:24:34;;;;;;;339.90;156.02;;;-3.50;99.90;;;;;;4973473;28;20088;-74
2021/12/23 05:27:01;;;;;;;337.00;145.60;;;-3.50;99.90;;;;;;4973462;28;20030;-74
2021/12/23 05:29:28;;;;;;;342.95;154.82;;;-3.50;99.90;;;;;;4972606;28;20549;-73
2021/12/23 05:31:54;;;;;;;340.85;155.23;;;-3.50;99.90;;;;;;4973419;28;20378;-73
2021/12/23 05:34:20;;;;;;;335.50;152.57;;;-3.50;99.90;;;;;;4974023;28;20027;-74
2021/12/23 05:36:47;;;;;;;326.17;153.20;;;-3.60;99.90;;;;;;4973637;28;20042;-73
2021/12/23 05:39:13;;;;;;;336.27;165.85;;;-3.50;99.90;;;;;;4973105;28;20042;-73
2021/12/23 05:41:39;;;;;;;343.25;163.52;;;-3.60;99.90;;;;;;4973264;28;20084;-74
2021/12/23 05:44:05;;;;;;;350.58;164.18;;;-3.50;99.90;;;;;;4973342;28;20050;-75
2021/12/23 05:46:31;;;;;;;364.25;166.60;;;-3.60;99.90;;;;;;4973289;28;20473;-73
2021/12/23 05:48:56;;;;;;;395.15;179.00;;;-3.50;99.90;;;;;;4973040;28;20037;-73
2021/12/23 05:51:22;;;;;;;412.08;188.93;;;-3.50;99.90;;;;;;4973086;28;20057;-73
2021/12/23 05:53:48;;;;;;;444.25;201.98;;;-3.50;99.90;;;;;;4972908;28;20105;-74
2021/12/23 05:56:14;;;;;;;532.92;229.50;;;-3.60;99.90;;;;;;4972883;28;20034;-73
2021/12/23 05:58:40;;;;;;;494.02;215.68;;;-3.50;99.90;;;;;;4973134;28;20085;-74
2021/12/23 06:01:06;;;;;;;440.63;194.38;;;-3.60;99.90;;;;;;4972780;28;20030;-73
2021/12/23 06:03:32;;;;;;;391.58;175.32;;;-3.60;99.90;;;;;;4973060;28;20026;-73
2021/12/23 06:05:57;;;;;;;340.10;158.52;;;-3.60;99.90;;;;;;4973082;28;20492;-73
2021/12/23 06:08:23;;;;;;;348.95;153.38;;;-3.60;99.90;;;;;;4972972;28;20027;-73
2021/12/23 06:10:49;;;;;;;351.58;157.25;;;-3.60;99.90;;;;;;4973006;28;20034;-73
2021/12/23 06:13:15;;;;;;;361.30;159.57;;;-3.60;99.90;;;;;;4972952;28;20038;-73
2021/12/23 06:15:41;;;;;;;359.83;154.63;;;-3.60;99.90;;;;;;4972528;28;20034;-73
2021/12/23 06:18:07;;;;;;;330.13;151.05;;;-3.70;99.90;;;;;;4972545;28;20030;-73
2021/12/23 06:20:33;;;;;;;315.55;137.82;;;-3.60;99.90;;;;;;4972997;28;20031;-73
2021/12/23 06:22:58;;;;;;;311.55;136.65;;;-3.60;99.90;;;;;;4972348;28;20106;-74
2021/12/23 06:25:24;;;;;;;319.50;146.38;;;-3.50;99.90;;;;;;4972490;28;20034;-73
2021/12/23 06:27:50;;;;;;;343.38;160.10;;;-3.60;99.90;;;;;;4972207;28;20034;-74
2021/12/23 06:32:44;;;;;;;325.10;156.30;;;-3.50;99.90;;;;;;4972018;28;20042;-73
2021/12/23 06:35:11;;;;;;;324.27;150.38;;;-3.50;99.90;;;;;;4972362;28;20038;-73
2021/12/23 06:37:37;;;;;;;314.35;142.93;;;-3.40;99.90;;;;;;4972750;28;20037;-74
2021/12/23 06:40:04;;;;;;;295.13;135.43;;;-3.50;99.90;;;;;;4972527;28;20027;-72
2021/12/23 06:42:30;;;;;;;284.50;129.73;;;-3.50;99.90;;;;;;4972327;28;20038;-73
2021/12/23 06:44:55;;;;;;;292.48;127.72;;;-3.40;99.90;;;;;;4972487;28;20027;-73
2021/12/23 06:47:21;;;;;;;290.63;126.50;;;-3.40;99.90;;;;;;4972549;28;20077;-73
2021/12/23 06:49:47;;;;;;;291.73;134.82;;;-3.40;99.90;;;;;;4972304;28;20060;-73
2021/12/23 06:52:14;;;;;;;288.00;121.28;;;-3.30;99.90;;;;;;4972276;28;20055;-73
2021/12/23 06:54:47;;;;;;;300.52;128.60;;;-3.20;99.90;;;;;;4972052;28;20543;-74
2021/12/23 06:57:13;;;;;;;325.85;138.10;;;-3.20;99.90;;;;;;4972253;28;20481;-73
2021/12/23 06:59:40;;;;;;;317.90;136.07;;;-3.20;99.90;;;;;;4972219;28;20031;-72
2021/12/23 07:02:07;;;;;;;314.83;131.88;;;-3.10;99.90;;;;;;4972399;28;20084;-73
2021/12/23 07:04:34;;;;;;;343.88;136.10;;;-2.90;99.90;;;;;;4971863;28;20033;-73
2021/12/23 07:07:10;;;;;;;307.00;134.35;;;-2.60;99.90;;;;;;4972376;28;20031;-73
2021/12/23 07:09:37;;;;;;;278.55;120.70;;;-2.10;99.90;;;;;;4971983;28;20483;-73
2021/12/23 07:12:09;;;;;;;285.10;116.03;;;-1.80;99.90;;;;;;4971956;28;20049;-73
2021/12/23 07:14:35;;;;;;;261.73;117.57;;;-1.40;99.90;;;;;;4972118;28;20126;-74
2021/12/23 07:17:01;;;;;;;305.63;133.85;;;-1.10;99.90;;;;;;4971514;28;20067;-73
2021/12/23 07:19:27;;;;;;;228.90;101.63;;;-0.90;99.90;;;;;;4972244;28;20038;-73
2021/12/23 07:21:53;;;;;;;234.43;107.72;;;-0.80;99.90;;;;;;4972024;28;20027;-73
2021/12/23 07:24:20;;;;;;;230.00;108.93;;;-0.90;99.90;;;;;;4971947;28;20031;-73
2021/12/23 07:26:46;;;;;;;205.15;87.85;;;-1.30;99.90;;;;;;4971783;28;20069;-73
2021/12/23 07:29:11;;;;;;;354.10;140.70;;;-1.40;99.90;;;;;;4971797;28;20031;-73
2021/12/23 07:31:37;;;;;;;306.83;133.18;;;-1.50;99.90;;;;;;4971797;28;20031;-73
2021/12/23 07:34:03;;;;;;;387.52;148.10;;;-1.50;99.90;;;;;;4972097;28;20027;-72
2021/12/23 07:36:29;;;;;;;305.77;129.00;;;-1.50;99.90;;;;;;4971581;28;20382;-72
2021/12/23 07:38:56;;;;;;;266.58;109.28;;;-1.40;99.90;;;;;;4971439;28;20038;-73
2021/12/23 07:41:25;;;;;;;196.77;83.72;;;-1.30;99.90;;;;;;4971788;28;20027;-72
2021/12/23 07:44:04;;;;;;;334.33;128.70;;;-1.40;99.90;;;;;;4971954;28;20089;-73
2021/12/23 07:46:35;;;;;;;291.40;129.50;;;-1.40;99.90;;;;;;4971935;28;20031;-73
2021/12/23 07:49:02;;;;;;;532.15;242.88;;;-1.40;99.90;;;;;;4971425;28;20051;-73
2021/12/23 07:51:28;;;;;;;335.60;147.70;;;-1.30;99.90;;;;;;4971691;28;20047;-73
2021/12/23 07:53:55;;;;;;;316.92;141.95;;;-1.20;99.90;;;;;;4971177;28;20037;-73
2021/12/23 07:56:22;;;;;;;281.73;121.03;;;-1.20;99.90;;;;;;4971593;28;20110;-73
2021/12/23 07:58:48;;;;;;;282.80;122.40;;;-1.20;99.90;;;;;;4971463;28;20027;-73
2021/12/23 08:01:14;;;;;;;300.35;125.47;;;-1.10;99.90;;;;;;4971647;28;20092;-73
2021/12/23 08:03:40;;;;;;;271.98;111.47;;;-1.00;99.90;;;;;;4971294;28;20466;-73
2021/12/23 08:06:06;;;;;;;238.23;100.75;;;-1.00;99.90;;;;;;4971304;28;20077;-73
2021/12/23 08:08:32;;;;;;;181.82;71.95;;;-0.90;99.90;;;;;;4971098;28;20019;-73
2021/12/23 08:10:58;;;;;;;651.80;330.58;;;-0.90;99.90;;;;;;4970995;28;20077;-73
2021/12/23 08:13:24;;;;;;;170.88;82.85;;;-0.90;99.90;;;;;;4970901;28;20030;-73
2021/12/23 08:15:49;;;;;;;197.27;92.38;;;-0.80;99.90;;;;;;4971300;28;20527;-73
2021/12/23 08:18:15;;;;;;;162.27;71.75;;;-0.70;99.90;;;;;;4971223;28;20031;-72
2021/12/23 08:20:41;;;;;;;111.20;50.20;;;-0.70;99.90;;;;;;4971153;28;20117;-73
2021/12/23 08:23:07;;;;;;;139.88;60.95;;;-0.60;99.90;;;;;;4971066;28;20035;-72
2021/12/23 08:25:34;;;;;;;194.35;92.18;;;-0.60;99.90;;;;;;4971137;28;20023;-72
2021/12/23 08:28:00;;;;;;;159.95;67.10;;;-0.50;99.90;;;;;;4971135;28;20062;-73
2021/12/23 08:30:26;;;;;;;170.35;73.15;;;-0.40;99.90;;;;;;4974530;28;20050;-72
2021/12/23 08:32:52;;;;;;;143.18;63.63;;;-0.30;99.90;;;;;;4974514;28;20033;-73
2021/12/23 08:35:18;;;;;;;180.18;76.25;;;-0.30;99.90;;;;;;4974404;28;20043;-72
2021/12/23 08:37:49;;;;;;;178.32;80.00;;;-0.40;99.90;;;;;;4974384;28;20027;-73
2021/12/23 08:40:19;;;;;;;169.73;78.38;;;-0.50;99.90;;;;;;4973380;28;20062;-73
2021/12/23 08:42:46;;;;;;;173.52;80.50;;;-0.50;99.90;;;;;;4973455;28;20053;-73
2021/12/23 08:45:12;;;;;;;182.20;82.05;;;-0.50;99.90;;;;;;4973515;28;20059;-73
2021/12/23 08:47:38;;;;;;;141.15;63.50;;;-0.40;99.90;;;;;;4973716;28;20057;-73
2021/12/23 08:50:06;;;;;;;188.60;88.35;;;-0.40;99.90;;;;;;4973148;28;20488;-73
2021/12/23 08:52:33;;;;;;;155.32;67.20;;;-0.30;99.90;;;;;;4973670;28;20055;-73
2021/12/23 08:54:58;;;;;;;146.50;64.70;;;-0.30;99.90;;;;;;4973305;28;20039;-73
2021/12/23 08:57:24;;;;;;;152.10;66.20;;;-0.30;99.90;;;;;;4973734;28;20035;-73
2021/12/23 08:59:50;;;;;;;148.98;68.13;;;-0.30;99.90;;;;;;4973712;28;20031;-73
2021/12/23 09:02:16;;;;;;;144.38;64.95;;;-0.40;99.90;;;;;;4972886;28;20093;-73
2021/12/23 09:04:42;;;;;;;142.75;66.35;;;-0.30;99.90;;;;;;4973177;28;20034;-73
2021/12/23 09:07:10;;;;;;;141.68;63.22;;;-0.30;99.90;;;;;;4973271;28;20370;-73
2021/12/23 09:09:36;;;;;;;174.40;74.35;;;-0.30;99.90;;;;;;4972931;28;20030;-73
2021/12/23 09:12:06;;;;;;;161.48;76.15;;;-0.20;99.90;;;;;;4973064;28;20588;-74
2021/12/23 09:14:33;;;;;;;398.58;120.55;;;-0.10;99.90;;;;;;4973390;28;20048;-73
2021/12/23 09:16:59;;;;;;;133.55;60.35;;;-0.10;99.90;;;;;;4972729;28;20126;-73
2021/12/23 09:19:25;;;;;;;497.58;170.57;;;-0.10;99.90;;;;;;4973299;28;20109;-73
2021/12/23 09:21:50;;;;;;;409.35;129.65;;;0.00;99.90;;;;;;4973232;28;20394;-74
2021/12/23 09:24:18;;;;;;;741.05;213.75;;;-0.10;99.90;;;;;;4973076;28;20041;-74
2021/12/23 09:26:52;;;;;;;470.40;144.02;;;-0.10;99.90;;;;;;4972703;28;20110;-74
2021/12/23 09:34:56;;;;;;;337.98;127.05;;;0.00;99.90;;;;;;4972752;28;20003;-74
2021/12/23 09:37:23;;;;;;;198.10;86.30;;;0.10;99.90;;;;;;4972655;28;20027;-74
2021/12/23 09:39:54;;;;;;;201.18;85.18;;;0.10;99.90;;;;;;4972016;28;20042;-74
2021/12/23 09:42:31;;;;;;;174.38;73.13;;;0.20;99.90;;;;;;4972726;28;20027;-73
2021/12/23 09:45:01;;;;;;;159.35;66.15;;;0.10;99.90;;;;;;4972737;28;20039;-73
2021/12/23 09:47:29;;;;;;;214.30;82.93;;;0.10;99.90;;;;;;4972496;28;20030;-73
2021/12/23 09:49:57;;;;;;;176.40;74.30;;;0.10;99.90;;;;;;4972927;28;20027;-73
2021/12/23 09:52:25;;;;;;;185.65;80.28;;;0.10;99.90;;;;;;4972752;28;20461;-73
2021/12/23 09:54:54;;;;;;;210.23;86.60;;;0.10;99.90;;;;;;4972551;28;20062;-73
2021/12/23 09:57:20;;;;;;;235.20;95.20;;;0.30;99.90;;;;;;4972225;28;20027;-73
2021/12/23 09:59:47;;;;;;;199.70;87.82;;;0.30;99.90;;;;;;4972249;28;20458;-73
2021/12/23 10:02:13;;;;;;;146.43;65.22;;;0.30;99.90;;;;;;4972057;28;20034;-74
2021/12/23 10:04:39;;;;;;;150.18;62.53;;;0.30;99.90;;;;;;4972328;28;20105;-73
2021/12/23 10:07:05;;;;;;;156.38;66.45;;;0.30;99.90;;;;;;4972169;28;20461;-73
2021/12/23 10:09:45;;;;;;;143.65;66.55;;;0.30;99.90;;;;;;4972207;28;20401;-73
2021/12/23 10:31:42;;;;;;;167.85;75.50;;;0.40;99.90;;;;;;4972028;28;20473;-73
2021/12/23 10:37:14;;;;;;;158.43;72.35;;;0.50;99.90;;;;;;4972103;28;20080;-73
2021/12/23 10:39:43;;;;;;;183.27;82.75;;;0.60;99.90;;;;;;4972182;28;20461;-73
2021/12/23 10:42:18;;;;;;;169.43;79.65;;;0.60;99.90;;;;;;4972110;28;20030;-73
2021/12/23 10:44:55;;;;;;;169.20;74.60;;;0.50;99.90;;;;;;4972172;28;20343;-73
2021/12/23 10:47:42;;;;;;;178.00;83.47;;;0.60;99.90;;;;;;4971256;28;20050;-73
2021/12/23 10:50:39;;;;;;;160.98;67.13;;;0.70;99.90;;;;;;4971656;28;20043;-72
2021/12/23 10:53:24;;;;;;;222.07;92.25;;;0.70;99.90;;;;;;4971160;28;20460;-73
2021/12/23 10:59:16;;;;;;;228.77;99.75;;;0.80;99.90;;;;;;4971263;28;20038;-74
2021/12/23 11:02:09;;;;;;;184.35;79.03;;;0.90;99.90;;;;;;4971387;28;20106;-73
2021/12/23 11:04:59;;;;;;;244.43;98.13;;;0.80;99.90;;;;;;4971707;28;20358;-74
2021/12/23 11:07:39;;;;;;;282.45;117.25;;;0.90;99.90;;;;;;4971721;28;20026;-73
2021/12/23 11:10:19;;;;;;;256.40;108.32;;;1.00;99.90;;;;;;4971290;28;20037;-73
2021/12/23 11:45:26;;;;;;;141.18;66.63;;;1.40;99.90;;;;;;5030695;28;20040;-73
2021/12/23 11:47:52;;;;;;;257.33;97.88;;;1.50;99.90;;;;;;5030231;28;20116;-73
2021/12/23 11:50:29;;;;;;;134.68;62.17;;;1.50;99.90;;;;;;5029651;28;20121;-72
2021/12/23 11:52:55;;;;;;;128.60;58.33;;;1.50;99.90;;;;;;5030274;28;20025;-72
2021/12/23 11:55:21;;;;;;;133.68;62.97;;;1.60;99.90;;;;;;5030085;28;20088;-72
2021/12/23 11:57:48;;;;;;;148.95;65.30;;;1.50;99.90;;;;;;5030266;28;20034;-72
2021/12/23 12:00:32;;;;;;;163.07;67.00;;;1.60;99.90;;;;;;5029895;28;20116;-73
2021/12/23 12:03:03;;;;;;;228.02;78.82;;;1.70;99.90;;;;;;5031870;28;20072;-72
2021/12/23 12:05:30;;;;;;;105.32;45.88;;;1.70;99.90;;;;;;5034017;28;20407;-72
2021/12/23 12:08:11;;;;;;;146.02;66.32;;;1.70;99.90;;;;;;5033826;28;20034;-73
2021/12/23 12:10:40;;;;;;;170.85;74.65;;;1.80;99.90;;;;;;5033983;28;20396;-72
2021/12/23 12:13:09;;;;;;;167.88;76.65;;;1.80;99.90;;;;;;5033680;28;20029;-72
2021/12/23 12:15:38;;;;;;;156.43;71.15;;;1.70;99.90;;;;;;5011485;28;20078;-72
2021/12/23 12:18:07;;;;;;;176.88;82.70;;;1.80;99.90;;;;;;4973764;28;20031;-73
2021/12/23 12:20:37;;;;;;;212.30;91.78;;;1.80;99.90;;;;;;4974193;28;20027;-72
2021/12/23 12:23:13;;;;;;;174.90;78.95;;;1.80;99.90;;;;;;4973548;28;20026;-72
2021/12/23 12:25:40;;;;;;;162.80;74.25;;;1.80;99.90;;;;;;4973520;28;20023;-72
2021/12/23 12:28:06;;;;;;;178.52;79.13;;;1.70;99.90;;;;;;4973778;28;20027;-72
2021/12/23 12:30:48;;;;;;;206.75;85.93;;;1.80;99.90;;;;;;4973762;28;20057;-72
2021/12/23 12:33:23;;;;;;;262.10;104.20;;;1.80;99.90;;;;;;4973418;28;20035;-72
2021/12/23 12:36:16;;;;;;;436.00;188.80;;;1.70;99.90;;;;;;4973875;28;20501;-72
2021/12/23 12:38:51;;;;;;;686.17;309.63;;;1.80;99.90;;;;;;4973688;28;20027;-72
2021/12/23 12:41:32;;;;;;;1573.78;695.00;;;1.90;99.90;;;;;;4974159;28;20034;-72
2021/12/23 12:44:04;;;;;;;472.60;236.05;;;1.90;99.90;;;;;;4972874;28;20122;-72
2021/12/23 12:46:54;;;;;;;207.10;99.93;;;1.90;99.90;;;;;;4973378;28;20042;-72
2021/12/23 12:49:38;;;;;;;180.73;85.05;;;2.00;99.90;;;;;;4973404;28;20050;-71
2021/12/23 12:52:32;;;;;;;171.68;76.95;;;2.00;99.90;;;;;;4973376;28;20051;-72
2021/12/23 12:55:05;;;;;;;169.90;76.10;;;1.90;99.90;;;;;;4973512;28;20470;-72
2021/12/23 12:57:43;;;;;;;187.25;80.43;;;2.00;99.90;;;;;;4973566;28;20031;-72
2021/12/23 13:00:40;;;;;;;205.23;89.80;;;2.00;99.90;;;;;;4973162;28;20033;-72
2021/12/23 13:03:12;;;;;;;205.45;93.80;;;2.00;99.90;;;;;;4973026;28;20394;-72
2021/12/23 13:05:42;;;;;;;161.50;74.30;;;2.00;99.90;;;;;;4973337;28;20419;-72
2021/12/23 13:08:24;;;;;;;175.32;80.43;;;2.00;99.90;;;;;;4973062;28;20485;-72
2021/12/23 13:10:51;;;;;;;135.55;58.15;;;1.90;99.90;;;;;;4973605;28;20058;-72
2021/12/23 13:13:40;;;;;;;174.80;76.80;;;1.90;99.90;;;;;;4973043;28;20043;-72
2021/12/23 13:16:23;;;;;;;175.77;81.13;;;1.90;99.90;;;;;;4972776;28;20113;-72
2021/12/23 13:19:17;;;;;;;156.65;69.78;;;1.80;99.90;;;;;;4972885;28;20377;-72
2021/12/23 13:21:46;;;;;;;165.10;71.93;;;1.80;99.90;;;;;;4973148;28;20458;-72
2021/12/23 13:24:14;;;;;;;165.98;75.78;;;1.80;99.90;;;;;;4972975;28;20023;-72
2021/12/23 13:26:40;;;;;;;347.83;158.10;;;1.90;99.90;;;;;;4973065;28;20029;-72
2021/12/23 13:29:08;;;;;;;596.30;247.60;;;1.90;99.90;;;;;;4972825;28;20098;-72
2021/12/23 13:31:36;;;;;;;294.23;140.02;;;1.90;99.90;;;;;;4972958;28;20031;-72
2021/12/23 13:34:09;;;;;;;286.80;136.10;;;2.00;99.90;;;;;;4972953;28;20504;-72
2021/12/23 13:36:42;;;;;;;218.45;107.43;;;1.90;99.90;;;;;;4972819;28;20037;-72